sensor_id;sensor_type;location;lat;lon;timestamp;temperature;humidity
78896;HTU21D;68284;59.124;37.910;2023-08-20T00:00:11;16.57;79.98
78896;HTU21D;68284;59.124;37.910;2023-08-20T00:02:43;16.55;80.10
78896;HTU21D;68284;59.124;37.910;2023-08-20T00:05:12;16.51;80.06
78896;HTU21D;68284;59.124;37.910;2023-08-20T00:07:39;16.49;80.07
78896;HTU21D;68284;59.124;37.910;2023-08-20T00:10:06;16.45;80.23
78896;HTU21D;68284;59.124;37.910;2023-08-20T00:12:33;16.42;80.25
78896;HTU21D;68284;59.124;37.910;2023-08-20T00:15:02;16.39;80.35
78896;HTU21D;68284;59.124;37.910;2023-08-20T00:17:38;16.33;80.39
78896;HTU21D;68284;59.124;37.910;2023-08-20T00:20:08;16.27;80.43
78896;HTU21D;68284;59.124;37.910;2023-08-20T00:22:45;16.21;80.56
78896;HTU21D;68284;59.124;37.910;2023-08-20T00:25:12;16.17;80.71
78896;HTU21D;68284;59.124;37.910;2023-08-20T00:27:40;16.14;80.80
78896;HTU21D;68284;59.124;37.910;2023-08-20T00:30:07;16.11;80.88
78896;HTU21D;68284;59.124;37.910;2023-08-20T00:32:36;16.07;80.98
78896;HTU21D;68284;59.124;37.910;2023-08-20T00:35:03;16.02;81.11
78896;HTU21D;68284;59.124;37.910;2023-08-20T00:37:31;16.01;81.35
78896;HTU21D;68284;59.124;37.910;2023-08-20T00:39:57;16.00;81.36
78896;HTU21D;68284;59.124;37.910;2023-08-20T00:42:25;15.99;81.29
78896;HTU21D;68284;59.124;37.910;2023-08-20T00:44:52;15.97;81.32
78896;HTU21D;68284;59.124;37.910;2023-08-20T00:47:20;15.95;81.47
78896;HTU21D;68284;59.124;37.910;2023-08-20T00:49:48;15.92;81.46
78896;HTU21D;68284;59.124;37.910;2023-08-20T00:52:16;15.90;81.47
78896;HTU21D;68284;59.124;37.910;2023-08-20T00:54:47;15.88;81.58
78896;HTU21D;68284;59.124;37.910;2023-08-20T00:57:14;15.87;81.65
78896;HTU21D;68284;59.124;37.910;2023-08-20T00:59:42;15.87;81.71
78896;HTU21D;68284;59.124;37.910;2023-08-20T01:02:09;15.88;81.71
78896;HTU21D;68284;59.124;37.910;2023-08-20T01:04:36;15.89;81.78
78896;HTU21D;68284;59.124;37.910;2023-08-20T01:12:28;15.88;81.94
78896;HTU21D;68284;59.124;37.910;2023-08-20T01:14:56;15.87;82.06
78896;HTU21D;68284;59.124;37.910;2023-08-20T01:17:23;15.88;82.17
78896;HTU21D;68284;59.124;37.910;2023-08-20T01:19:49;15.89;82.23
78896;HTU21D;68284;59.124;37.910;2023-08-20T01:28:29;15.95;82.17
78896;HTU21D;68284;59.124;37.910;2023-08-20T01:30:58;15.96;82.10
78896;HTU21D;68284;59.124;37.910;2023-08-20T01:33:25;15.97;82.16
78896;HTU21D;68284;59.124;37.910;2023-08-20T01:35:55;15.99;82.21
78896;HTU21D;68284;59.124;37.910;2023-08-20T01:38:22;15.99;82.19
78896;HTU21D;68284;59.124;37.910;2023-08-20T01:40:49;15.99;82.23
78896;HTU21D;68284;59.124;37.910;2023-08-20T01:43:15;15.99;82.25
78896;HTU21D;68284;59.124;37.910;2023-08-20T01:45:42;16.00;82.29
78896;HTU21D;68284;59.124;37.910;2023-08-20T01:48:09;16.01;82.42
78896;HTU21D;68284;59.124;37.910;2023-08-20T01:50:36;16.01;82.46
78896;HTU21D;68284;59.124;37.910;2023-08-20T01:53:04;16.04;82.44
78896;HTU21D;68284;59.124;37.910;2023-08-20T01:55:31;16.05;82.35
78896;HTU21D;68284;59.124;37.910;2023-08-20T01:57:57;16.06;82.34
78896;HTU21D;68284;59.124;37.910;2023-08-20T02:00:24;16.07;82.36
78896;HTU21D;68284;59.124;37.910;2023-08-20T02:02:50;16.08;82.38
78896;HTU21D;68284;59.124;37.910;2023-08-20T02:05:16;16.11;82.36
78896;HTU21D;68284;59.124;37.910;2023-08-20T02:07:43;16.10;82.29
78896;HTU21D;68284;59.124;37.910;2023-08-20T02:10:09;16.11;82.22
78896;HTU21D;68284;59.124;37.910;2023-08-20T02:12:35;16.12;82.06
78896;HTU21D;68284;59.124;37.910;2023-08-20T02:15:02;16.15;82.08
78896;HTU21D;68284;59.124;37.910;2023-08-20T02:17:31;16.16;82.13
78896;HTU21D;68284;59.124;37.910;2023-08-20T02:19:58;16.17;82.12
78896;HTU21D;68284;59.124;37.910;2023-08-20T02:22:24;16.18;82.09
78896;HTU21D;68284;59.124;37.910;2023-08-20T02:24:50;16.21;81.86
78896;HTU21D;68284;59.124;37.910;2023-08-20T02:27:21;16.26;81.91
78896;HTU21D;68284;59.124;37.910;2023-08-20T02:29:47;16.27;81.90
78896;HTU21D;68284;59.124;37.910;2023-08-20T02:32:15;16.28;81.95
78896;HTU21D;68284;59.124;37.910;2023-08-20T02:34:41;16.29;81.97
78896;HTU21D;68284;59.124;37.910;2023-08-20T02:37:07;16.31;81.94
78896;HTU21D;68284;59.124;37.910;2023-08-20T02:39:33;16.29;81.74
78896;HTU21D;68284;59.124;37.910;2023-08-20T02:42:01;16.28;81.72
78896;HTU21D;68284;59.124;37.910;2023-08-20T02:44:27;16.27;81.71
78896;HTU21D;68284;59.124;37.910;2023-08-20T02:46:54;16.26;81.72
78896;HTU21D;68284;59.124;37.910;2023-08-20T02:49:20;16.24;81.69
78896;HTU21D;68284;59.124;37.910;2023-08-20T02:51:46;16.22;81.62
78896;HTU21D;68284;59.124;37.910;2023-08-20T02:54:12;16.22;81.72
78896;HTU21D;68284;59.124;37.910;2023-08-20T02:56:38;16.20;81.55
78896;HTU21D;68284;59.124;37.910;2023-08-20T02:59:05;16.20;81.55
78896;HTU21D;68284;59.124;37.910;2023-08-20T03:01:31;16.17;81.55
78896;HTU21D;68284;59.124;37.910;2023-08-20T03:03:59;16.14;81.50
78896;HTU21D;68284;59.124;37.910;2023-08-20T03:06:25;16.08;81.64
78896;HTU21D;68284;59.124;37.910;2023-08-20T03:08:53;16.08;81.72
78896;HTU21D;68284;59.124;37.910;2023-08-20T03:11:19;16.13;81.68
78896;HTU21D;68284;59.124;37.910;2023-08-20T03:13:45;16.16;81.51
78896;HTU21D;68284;59.124;37.910;2023-08-20T03:16:12;16.15;81.30
78896;HTU21D;68284;59.124;37.910;2023-08-20T03:18:39;16.15;81.23
78896;HTU21D;68284;59.124;37.910;2023-08-20T03:21:05;16.16;81.26
78896;HTU21D;68284;59.124;37.910;2023-08-20T03:23:31;16.21;81.20
78896;HTU21D;68284;59.124;37.910;2023-08-20T03:25:58;16.27;81.11
78896;HTU21D;68284;59.124;37.910;2023-08-20T03:28:25;16.31;80.98
78896;HTU21D;68284;59.124;37.910;2023-08-20T03:30:53;16.36;81.03
78896;HTU21D;68284;59.124;37.910;2023-08-20T03:33:23;16.45;80.85
78896;HTU21D;68284;59.124;37.910;2023-08-20T03:35:50;16.48;80.55
78896;HTU21D;68284;59.124;37.910;2023-08-20T03:38:16;16.54;80.20
78896;HTU21D;68284;59.124;37.910;2023-08-20T03:40:42;16.57;80.06
78896;HTU21D;68284;59.124;37.910;2023-08-20T03:43:09;16.58;79.98
78896;HTU21D;68284;59.124;37.910;2023-08-20T03:45:36;16.62;79.85
78896;HTU21D;68284;59.124;37.910;2023-08-20T03:48:02;16.62;79.75
78896;HTU21D;68284;59.124;37.910;2023-08-20T03:50:29;16.65;79.70
78896;HTU21D;68284;59.124;37.910;2023-08-20T03:52:56;16.67;79.62
78896;HTU21D;68284;59.124;37.910;2023-08-20T03:55:22;16.69;79.55
78896;HTU21D;68284;59.124;37.910;2023-08-20T03:57:50;16.67;79.56
78896;HTU21D;68284;59.124;37.910;2023-08-20T04:00:16;16.69;79.56
78896;HTU21D;68284;59.124;37.910;2023-08-20T04:02:45;16.70;79.53
78896;HTU21D;68284;59.124;37.910;2023-08-20T04:05:12;16.71;79.40
78896;HTU21D;68284;59.124;37.910;2023-08-20T04:07:38;16.71;79.32
78896;HTU21D;68284;59.124;37.910;2023-08-20T04:10:07;16.69;79.21
78896;HTU21D;68284;59.124;37.910;2023-08-20T04:12:38;16.65;79.08
78896;HTU21D;68284;59.124;37.910;2023-08-20T04:15:05;16.61;79.07
78896;HTU21D;68284;59.124;37.910;2023-08-20T04:17:32;16.60;79.05
78896;HTU21D;68284;59.124;37.910;2023-08-20T04:19:59;16.59;79.08
78896;HTU21D;68284;59.124;37.910;2023-08-20T04:22:28;16.62;78.92
78896;HTU21D;68284;59.124;37.910;2023-08-20T04:24:57;16.61;78.85
78896;HTU21D;68284;59.124;37.910;2023-08-20T04:27:26;16.61;78.90
78896;HTU21D;68284;59.124;37.910;2023-08-20T04:29:52;16.67;78.99
78896;HTU21D;68284;59.124;37.910;2023-08-20T04:32:22;16.74;78.91
78896;HTU21D;68284;59.124;37.910;2023-08-20T04:34:50;16.79;78.80
78896;HTU21D;68284;59.124;37.910;2023-08-20T04:37:20;16.86;78.87
78896;HTU21D;68284;59.124;37.910;2023-08-20T04:39:49;16.95;78.82
78896;HTU21D;68284;59.124;37.910;2023-08-20T04:42:16;17.09;78.45
78896;HTU21D;68284;59.124;37.910;2023-08-20T04:44:43;17.18;78.01
78896;HTU21D;68284;59.124;37.910;2023-08-20T04:47:13;17.26;77.56
78896;HTU21D;68284;59.124;37.910;2023-08-20T04:49:39;17.29;77.23
78896;HTU21D;68284;59.124;37.910;2023-08-20T04:52:06;17.31;76.92
78896;HTU21D;68284;59.124;37.910;2023-08-20T04:54:33;17.33;76.70
78896;HTU21D;68284;59.124;37.910;2023-08-20T04:57:03;17.35;76.47
78896;HTU21D;68284;59.124;37.910;2023-08-20T04:59:41;17.33;76.38
78896;HTU21D;68284;59.124;37.910;2023-08-20T05:02:41;17.33;76.34
78896;HTU21D;68284;59.124;37.910;2023-08-20T05:05:13;17.35;76.44
78896;HTU21D;68284;59.124;37.910;2023-08-20T05:07:45;17.41;76.11
78896;HTU21D;68284;59.124;37.910;2023-08-20T05:10:36;17.40;76.05
78896;HTU21D;68284;59.124;37.910;2023-08-20T05:13:04;17.43;75.93
78896;HTU21D;68284;59.124;37.910;2023-08-20T05:15:31;17.47;75.56
78896;HTU21D;68284;59.124;37.910;2023-08-20T05:17:58;17.50;75.37
78896;HTU21D;68284;59.124;37.910;2023-08-20T05:20:25;17.53;75.54
78896;HTU21D;68284;59.124;37.910;2023-08-20T05:22:52;17.68;75.19
78896;HTU21D;68284;59.124;37.910;2023-08-20T05:25:18;17.79;74.51
78896;HTU21D;68284;59.124;37.910;2023-08-20T05:27:44;17.87;74.14
78896;HTU21D;68284;59.124;37.910;2023-08-20T05:30:11;17.97;73.57
78896;HTU21D;68284;59.124;37.910;2023-08-20T05:32:38;18.02;73.00
78896;HTU21D;68284;59.124;37.910;2023-08-20T05:35:08;18.07;72.75
78896;HTU21D;68284;59.124;37.910;2023-08-20T05:37:35;18.08;72.55
78896;HTU21D;68284;59.124;37.910;2023-08-20T05:40:04;18.09;72.33
78896;HTU21D;68284;59.124;37.910;2023-08-20T05:42:37;18.08;72.03
78896;HTU21D;68284;59.124;37.910;2023-08-20T05:45:06;18.03;71.96
78896;HTU21D;68284;59.124;37.910;2023-08-20T05:47:37;17.98;72.12
78896;HTU21D;68284;59.124;37.910;2023-08-20T05:50:05;17.92;72.11
78896;HTU21D;68284;59.124;37.910;2023-08-20T05:52:33;17.87;72.24
78896;HTU21D;68284;59.124;37.910;2023-08-20T05:54:59;17.83;72.45
78896;HTU21D;68284;59.124;37.910;2023-08-20T05:57:26;17.90;72.59
78896;HTU21D;68284;59.124;37.910;2023-08-20T05:59:52;17.97;72.33
78896;HTU21D;68284;59.124;37.910;2023-08-20T06:02:19;18.02;72.21
78896;HTU21D;68284;59.124;37.910;2023-08-20T06:04:45;18.07;72.09
78896;HTU21D;68284;59.124;37.910;2023-08-20T06:07:11;18.15;71.99
78896;HTU21D;68284;59.124;37.910;2023-08-20T06:09:38;18.27;71.73
78896;HTU21D;68284;59.124;37.910;2023-08-20T06:12:05;18.38;71.49
78896;HTU21D;68284;59.124;37.910;2023-08-20T06:14:32;18.48;71.25
78896;HTU21D;68284;59.124;37.910;2023-08-20T06:17:01;18.50;70.78
78896;HTU21D;68284;59.124;37.910;2023-08-20T06:19:29;18.48;70.61
78896;HTU21D;68284;59.124;37.910;2023-08-20T06:21:56;18.40;70.47
78896;HTU21D;68284;59.124;37.910;2023-08-20T06:24:22;18.37;70.47
78896;HTU21D;68284;59.124;37.910;2023-08-20T06:26:56;18.42;70.31
78896;HTU21D;68284;59.124;37.910;2023-08-20T06:29:22;18.54;70.05
78896;HTU21D;68284;59.124;37.910;2023-08-20T06:31:54;18.72;69.38
78896;HTU21D;68284;59.124;37.910;2023-08-20T06:34:20;18.87;68.58
78896;HTU21D;68284;59.124;37.910;2023-08-20T06:36:47;18.99;67.75
78896;HTU21D;68284;59.124;37.910;2023-08-20T06:39:13;19.07;67.00
78896;HTU21D;68284;59.124;37.910;2023-08-20T06:41:41;19.05;66.46
78896;HTU21D;68284;59.124;37.910;2023-08-20T06:44:19;19.05;66.72
78896;HTU21D;68284;59.124;37.910;2023-08-20T06:46:46;19.12;66.33
78896;HTU21D;68284;59.124;37.910;2023-08-20T06:49:13;19.21;66.21
78896;HTU21D;68284;59.124;37.910;2023-08-20T06:51:40;19.31;66.01
78896;HTU21D;68284;59.124;37.910;2023-08-20T06:54:09;19.44;65.66
78896;HTU21D;68284;59.124;37.910;2023-08-20T06:56:51;19.61;65.30
78896;HTU21D;68284;59.124;37.910;2023-08-20T06:59:18;19.74;64.83
78896;HTU21D;68284;59.124;37.910;2023-08-20T07:01:45;19.85;64.67
78896;HTU21D;68284;59.124;37.910;2023-08-20T07:04:11;19.89;63.62
78896;HTU21D;68284;59.124;37.910;2023-08-20T07:06:43;19.86;63.34
78896;HTU21D;68284;59.124;37.910;2023-08-20T07:09:14;19.84;62.91
78896;HTU21D;68284;59.124;37.910;2023-08-20T07:11:46;19.80;62.49
78896;HTU21D;68284;59.124;37.910;2023-08-20T07:17:34;19.57;62.24
78896;HTU21D;68284;59.124;37.910;2023-08-20T07:20:03;19.59;62.24
78896;HTU21D;68284;59.124;37.910;2023-08-20T07:22:29;19.66;62.52
78896;HTU21D;68284;59.124;37.910;2023-08-20T07:25:01;19.74;62.20
78896;HTU21D;68284;59.124;37.910;2023-08-20T07:27:30;19.79;61.60
78896;HTU21D;68284;59.124;37.910;2023-08-20T07:29:58;19.75;61.54
78896;HTU21D;68284;59.124;37.910;2023-08-20T07:32:27;19.73;62.33
78896;HTU21D;68284;59.124;37.910;2023-08-20T07:34:55;19.85;61.86
78896;HTU21D;68284;59.124;37.910;2023-08-20T07:37:22;19.94;61.45
78896;HTU21D;68284;59.124;37.910;2023-08-20T07:39:50;20.02;61.24
78896;HTU21D;68284;59.124;37.910;2023-08-20T07:42:18;20.14;61.15
78896;HTU21D;68284;59.124;37.910;2023-08-20T07:44:45;20.22;61.29
78896;HTU21D;68284;59.124;37.910;2023-08-20T07:47:17;20.31;60.68
78896;HTU21D;68284;59.124;37.910;2023-08-20T07:49:43;20.39;61.08
78896;HTU21D;68284;59.124;37.910;2023-08-20T07:52:16;20.53;60.44
78896;HTU21D;68284;59.124;37.910;2023-08-20T07:54:44;20.61;59.82
78896;HTU21D;68284;59.124;37.910;2023-08-20T07:57:11;20.69;59.38
78896;HTU21D;68284;59.124;37.910;2023-08-20T07:59:39;20.78;58.99
78896;HTU21D;68284;59.124;37.910;2023-08-20T08:02:05;20.86;58.68
78896;HTU21D;68284;59.124;37.910;2023-08-20T08:04:35;20.98;58.30
78896;HTU21D;68284;59.124;37.910;2023-08-20T08:07:02;21.18;57.80
78896;HTU21D;68284;59.124;37.910;2023-08-20T08:09:31;21.37;57.11
78896;HTU21D;68284;59.124;37.910;2023-08-20T08:11:59;21.42;56.76
78896;HTU21D;68284;59.124;37.910;2023-08-20T08:14:29;21.37;56.71
78896;HTU21D;68284;59.124;37.910;2023-08-20T08:17:07;21.27;56.51
78896;HTU21D;68284;59.124;37.910;2023-08-20T08:19:34;21.19;56.76
78896;HTU21D;68284;59.124;37.910;2023-08-20T08:22:00;21.18;56.71
78896;HTU21D;68284;59.124;37.910;2023-08-20T08:24:31;21.17;56.85
78896;HTU21D;68284;59.124;37.910;2023-08-20T08:27:00;21.29;56.87
78896;HTU21D;68284;59.124;37.910;2023-08-20T08:29:28;21.45;56.34
78896;HTU21D;68284;59.124;37.910;2023-08-20T08:32:00;21.61;55.74
78896;HTU21D;68284;59.124;37.910;2023-08-20T08:34:26;21.76;55.52
78896;HTU21D;68284;59.124;37.910;2023-08-20T08:36:52;21.90;54.74
78896;HTU21D;68284;59.124;37.910;2023-08-20T08:39:21;21.98;54.47
78896;HTU21D;68284;59.124;37.910;2023-08-20T08:41:51;21.97;54.41
78896;HTU21D;68284;59.124;37.910;2023-08-20T08:44:21;21.87;53.59
78896;HTU21D;68284;59.124;37.910;2023-08-20T08:46:49;21.78;53.49
78896;HTU21D;68284;59.124;37.910;2023-08-20T08:49:17;21.75;53.19
78896;HTU21D;68284;59.124;37.910;2023-08-20T08:51:46;21.65;53.11
78896;HTU21D;68284;59.124;37.910;2023-08-20T08:54:13;21.57;52.96
78896;HTU21D;68284;59.124;37.910;2023-08-20T08:56:42;21.65;52.70
78896;HTU21D;68284;59.124;37.910;2023-08-20T08:59:09;21.83;52.28
78896;HTU21D;68284;59.124;37.910;2023-08-20T09:01:41;22.01;51.85
78896;HTU21D;68284;59.124;37.910;2023-08-20T09:04:07;22.14;51.92
78896;HTU21D;68284;59.124;37.910;2023-08-20T09:06:51;22.29;51.99
78896;HTU21D;68284;59.124;37.910;2023-08-20T09:09:26;22.38;51.82
78896;HTU21D;68284;59.124;37.910;2023-08-20T09:11:59;22.37;51.86
78896;HTU21D;68284;59.124;37.910;2023-08-20T09:14:30;22.37;51.72
78896;HTU21D;68284;59.124;37.910;2023-08-20T09:17:30;22.41;51.73
78896;HTU21D;68284;59.124;37.910;2023-08-20T09:20:06;22.56;51.62
78896;HTU21D;68284;59.124;37.910;2023-08-20T09:22:35;22.75;51.25
78896;HTU21D;68284;59.124;37.910;2023-08-20T09:25:03;22.95;50.46
78896;HTU21D;68284;59.124;37.910;2023-08-20T09:27:38;23.13;50.26
78896;HTU21D;68284;59.124;37.910;2023-08-20T09:30:08;23.22;49.77
78896;HTU21D;68284;59.124;37.910;2023-08-20T09:32:37;23.17;49.36
78896;HTU21D;68284;59.124;37.910;2023-08-20T09:35:18;22.99;48.21
78896;HTU21D;68284;59.124;37.910;2023-08-20T09:37:46;22.83;48.95
78896;HTU21D;68284;59.124;37.910;2023-08-20T09:40:12;22.81;48.48
78896;HTU21D;68284;59.124;37.910;2023-08-20T09:42:40;22.85;48.64
78896;HTU21D;68284;59.124;37.910;2023-08-20T09:45:11;23.08;47.68
78896;HTU21D;68284;59.124;37.910;2023-08-20T09:47:38;23.21;47.56
78896;HTU21D;68284;59.124;37.910;2023-08-20T09:50:10;23.28;46.74
78896;HTU21D;68284;59.124;37.910;2023-08-20T09:53:11;23.37;46.47
78896;HTU21D;68284;59.124;37.910;2023-08-20T09:55:35;23.39;46.58
78896;HTU21D;68284;59.124;37.910;2023-08-20T09:58:06;23.37;47.05
78896;HTU21D;68284;59.124;37.910;2023-08-20T10:00:37;23.45;47.09
78896;HTU21D;68284;59.124;37.910;2023-08-20T10:03:05;23.51;47.06
78896;HTU21D;68284;59.124;37.910;2023-08-20T10:05:33;23.55;47.04
78896;HTU21D;68284;59.124;37.910;2023-08-20T10:08:01;23.59;47.01
78896;HTU21D;68284;59.124;37.910;2023-08-20T10:10:30;23.57;46.68
78896;HTU21D;68284;59.124;37.910;2023-08-20T10:12:58;23.44;47.02
78896;HTU21D;68284;59.124;37.910;2023-08-20T10:15:27;23.31;47.15
78896;HTU21D;68284;59.124;37.910;2023-08-20T10:17:57;23.28;46.84
78896;HTU21D;68284;59.124;37.910;2023-08-20T10:20:28;23.39;46.16
78896;HTU21D;68284;59.124;37.910;2023-08-20T10:23:03;23.57;45.50
78896;HTU21D;68284;59.124;37.910;2023-08-20T10:25:30;23.77;45.36
78896;HTU21D;68284;59.124;37.910;2023-08-20T10:28:14;23.98;44.93
78896;HTU21D;68284;59.124;37.910;2023-08-20T10:31:10;24.08;44.32
78896;HTU21D;68284;59.124;37.910;2023-08-20T10:33:55;24.05;44.51
78896;HTU21D;68284;59.124;37.910;2023-08-20T10:36:23;24.00;43.99
78896;HTU21D;68284;59.124;37.910;2023-08-20T10:38:58;23.94;43.62
78896;HTU21D;68284;59.124;37.910;2023-08-20T10:41:30;23.96;43.65
78896;HTU21D;68284;59.124;37.910;2023-08-20T10:44:00;24.19;44.12
78896;HTU21D;68284;59.124;37.910;2023-08-20T10:46:28;24.64;43.16
78896;HTU21D;68284;59.124;37.910;2023-08-20T10:48:59;25.17;42.02
78896;HTU21D;68284;59.124;37.910;2023-08-20T10:56:47;26.35;40.73
78896;HTU21D;68284;59.124;37.910;2023-08-20T10:59:40;26.27;40.33
78896;HTU21D;68284;59.124;37.910;2023-08-20T11:02:15;26.13;40.00
78896;HTU21D;68284;59.124;37.910;2023-08-20T11:04:45;26.31;39.59
78896;HTU21D;68284;59.124;37.910;2023-08-20T11:07:17;26.56;39.01
78896;HTU21D;68284;59.124;37.910;2023-08-20T11:09:44;26.81;38.37
78896;HTU21D;68284;59.124;37.910;2023-08-20T11:12:15;27.16;36.82
78896;HTU21D;68284;59.124;37.910;2023-08-20T11:14:42;27.59;36.18
78896;HTU21D;68284;59.124;37.910;2023-08-20T11:17:16;28.16;36.23
78896;HTU21D;68284;59.124;37.910;2023-08-20T11:19:50;28.50;35.13
78896;HTU21D;68284;59.124;37.910;2023-08-20T11:22:25;28.40;35.40
78896;HTU21D;68284;59.124;37.910;2023-08-20T11:24:58;28.04;35.55
78896;HTU21D;68284;59.124;37.910;2023-08-20T11:27:27;27.87;35.60
78896;HTU21D;68284;59.124;37.910;2023-08-20T11:29:54;27.86;35.16
78896;HTU21D;68284;59.124;37.910;2023-08-20T11:32:26;28.08;34.76
78896;HTU21D;68284;59.124;37.910;2023-08-20T11:35:01;28.41;33.88
78896;HTU21D;68284;59.124;37.910;2023-08-20T11:37:52;28.82;33.34
78896;HTU21D;68284;59.124;37.910;2023-08-20T11:40:52;29.23;32.44
78896;HTU21D;68284;59.124;37.910;2023-08-20T11:43:18;29.58;31.84
78896;HTU21D;68284;59.124;37.910;2023-08-20T11:45:46;29.94;31.58
78896;HTU21D;68284;59.124;37.910;2023-08-20T11:48:15;30.45;30.81
78896;HTU21D;68284;59.124;37.910;2023-08-20T11:50:42;31.05;29.74
78896;HTU21D;68284;59.124;37.910;2023-08-20T11:53:09;31.34;28.98
78896;HTU21D;68284;59.124;37.910;2023-08-20T11:55:40;30.99;28.89
78896;HTU21D;68284;59.124;37.910;2023-08-20T11:58:11;30.13;29.65
78896;HTU21D;68284;59.124;37.910;2023-08-20T12:00:38;29.24;30.58
78896;HTU21D;68284;59.124;37.910;2023-08-20T12:03:06;29.00;30.93
78896;HTU21D;68284;59.124;37.910;2023-08-20T12:05:32;29.16;30.79
78896;HTU21D;68284;59.124;37.910;2023-08-20T12:08:02;29.62;30.44
78896;HTU21D;68284;59.124;37.910;2023-08-20T12:10:32;29.97;30.00
78896;HTU21D;68284;59.124;37.910;2023-08-20T12:12:58;30.56;29.29
78896;HTU21D;68284;59.124;37.910;2023-08-20T12:15:29;31.20;28.61
78896;HTU21D;68284;59.124;37.910;2023-08-20T12:18:04;31.12;28.89
78896;HTU21D;68284;59.124;37.910;2023-08-20T12:20:35;30.56;28.73
78896;HTU21D;68284;59.124;37.910;2023-08-20T12:23:16;29.71;29.72
78896;HTU21D;68284;59.124;37.910;2023-08-20T12:26:05;29.04;30.67
78896;HTU21D;68284;59.124;37.910;2023-08-20T12:28:36;29.12;30.40
78896;HTU21D;68284;59.124;37.910;2023-08-20T12:31:02;29.59;29.93
78896;HTU21D;68284;59.124;37.910;2023-08-20T12:33:32;30.31;28.91
78896;HTU21D;68284;59.124;37.910;2023-08-20T12:35:58;30.97;28.19
78896;HTU21D;68284;59.124;37.910;2023-08-20T12:38:27;31.64;27.33
78896;HTU21D;68284;59.124;37.910;2023-08-20T12:41:01;32.28;26.44
78896;HTU21D;68284;59.124;37.910;2023-08-20T12:43:42;32.84;26.20
78896;HTU21D;68284;59.124;37.910;2023-08-20T12:46:12;33.17;25.36
78896;HTU21D;68284;59.124;37.910;2023-08-20T12:49:09;32.99;25.65
78896;HTU21D;68284;59.124;37.910;2023-08-20T12:52:12;32.56;26.10
78896;HTU21D;68284;59.124;37.910;2023-08-20T12:54:44;32.33;26.10
78896;HTU21D;68284;59.124;37.910;2023-08-20T12:57:12;31.88;26.42
78896;HTU21D;68284;59.124;37.910;2023-08-20T12:59:44;31.35;26.90
78896;HTU21D;68284;59.124;37.910;2023-08-20T13:02:15;30.64;27.37
78896;HTU21D;68284;59.124;37.910;2023-08-20T13:04:45;29.72;28.39
78896;HTU21D;68284;59.124;37.910;2023-08-20T13:07:15;29.58;28.85
78896;HTU21D;68284;59.124;37.910;2023-08-20T13:09:44;30.12;28.95
78896;HTU21D;68284;59.124;37.910;2023-08-20T13:12:11;30.97;27.72
78896;HTU21D;68284;59.124;37.910;2023-08-20T13:14:42;31.71;26.85
78896;HTU21D;68284;59.124;37.910;2023-08-20T13:17:15;32.60;26.62
78896;HTU21D;68284;59.124;37.910;2023-08-20T13:19:45;33.52;25.28
78896;HTU21D;68284;59.124;37.910;2023-08-20T13:22:23;34.16;24.19
78896;HTU21D;68284;59.124;37.910;2023-08-20T13:24:54;34.62;23.05
78896;HTU21D;68284;59.124;37.910;2023-08-20T13:27:28;35.12;22.43
78896;HTU21D;68284;59.124;37.910;2023-08-20T13:29:58;35.47;21.94
78896;HTU21D;68284;59.124;37.910;2023-08-20T13:32:26;35.66;21.86
78896;HTU21D;68284;59.124;37.910;2023-08-20T13:34:57;35.86;21.22
78896;HTU21D;68284;59.124;37.910;2023-08-20T13:37:32;35.56;21.15
78896;HTU21D;68284;59.124;37.910;2023-08-20T13:40:06;35.34;21.34
78896;HTU21D;68284;59.124;37.910;2023-08-20T13:42:56;35.70;21.30
78896;HTU21D;68284;59.124;37.910;2023-08-20T13:45:22;35.59;20.92
78896;HTU21D;68284;59.124;37.910;2023-08-20T13:47:56;35.00;21.15
78896;HTU21D;68284;59.124;37.910;2023-08-20T13:50:26;34.01;22.19
78896;HTU21D;68284;59.124;37.910;2023-08-20T13:52:56;32.82;22.98
78896;HTU21D;68284;59.124;37.910;2023-08-20T13:55:50;31.52;24.53
78896;HTU21D;68284;59.124;37.910;2023-08-20T13:58:19;31.49;24.84
78896;HTU21D;68284;59.124;37.910;2023-08-20T14:00:48;31.70;24.69
78896;HTU21D;68284;59.124;37.910;2023-08-20T14:03:41;31.55;25.02
78896;HTU21D;68284;59.124;37.910;2023-08-20T14:06:12;31.66;25.06
78896;HTU21D;68284;59.124;37.910;2023-08-20T14:08:46;31.51;25.28
78896;HTU21D;68284;59.124;37.910;2023-08-20T14:11:12;30.90;26.22
78896;HTU21D;68284;59.124;37.910;2023-08-20T14:13:41;30.21;27.28
78896;HTU21D;68284;59.124;37.910;2023-08-20T14:16:14;30.05;27.78
78896;HTU21D;68284;59.124;37.910;2023-08-20T14:18:41;30.47;27.30
78896;HTU21D;68284;59.124;37.910;2023-08-20T14:21:20;31.10;26.53
78896;HTU21D;68284;59.124;37.910;2023-08-20T14:23:49;31.34;26.31
78896;HTU21D;68284;59.124;37.910;2023-08-20T14:27:06;32.05;25.37
78896;HTU21D;68284;59.124;37.910;2023-08-20T14:29:38;31.75;25.29
78896;HTU21D;68284;59.124;37.910;2023-08-20T14:32:09;30.84;25.92
78896;HTU21D;68284;59.124;37.910;2023-08-20T14:34:36;29.77;27.14
78896;HTU21D;68284;59.124;37.910;2023-08-20T14:37:13;28.69;28.73
78896;HTU21D;68284;59.124;37.910;2023-08-20T14:39:42;27.84;30.09
78896;HTU21D;68284;59.124;37.910;2023-08-20T14:42:10;27.14;31.19
78896;HTU21D;68284;59.124;37.910;2023-08-20T14:44:36;26.73;32.11
78896;HTU21D;68284;59.124;37.910;2023-08-20T14:47:05;26.33;32.96
78896;HTU21D;68284;59.124;37.910;2023-08-20T14:49:35;25.91;33.32
78896;HTU21D;68284;59.124;37.910;2023-08-20T14:52:18;25.75;33.82
78896;HTU21D;68284;59.124;37.910;2023-08-20T14:54:46;26.51;33.31
78896;HTU21D;68284;59.124;37.910;2023-08-20T14:57:14;27.64;32.00
78896;HTU21D;68284;59.124;37.910;2023-08-20T14:59:44;28.45;31.40
78896;HTU21D;68284;59.124;37.910;2023-08-20T15:02:18;29.31;30.05
78896;HTU21D;68284;59.124;37.910;2023-08-20T15:04:46;30.19;28.75
78896;HTU21D;68284;59.124;37.910;2023-08-20T15:07:12;31.02;27.36
78896;HTU21D;68284;59.124;37.910;2023-08-20T15:09:38;31.81;26.35
78896;HTU21D;68284;59.124;37.910;2023-08-20T15:12:07;32.31;25.68
78896;HTU21D;68284;59.124;37.910;2023-08-20T15:14:39;32.75;24.90
78896;HTU21D;68284;59.124;37.910;2023-08-20T15:17:06;32.40;24.78
78896;HTU21D;68284;59.124;37.910;2023-08-20T15:19:34;31.46;25.55
78896;HTU21D;68284;59.124;37.910;2023-08-20T15:22:02;30.96;26.14
78896;HTU21D;68284;59.124;37.910;2023-08-20T15:24:30;30.98;26.09
78896;HTU21D;68284;59.124;37.910;2023-08-20T15:26:57;31.18;26.14
78896;HTU21D;68284;59.124;37.910;2023-08-20T15:29:23;31.42;25.88
78896;HTU21D;68284;59.124;37.910;2023-08-20T15:31:49;31.69;25.55
78896;HTU21D;68284;59.124;37.910;2023-08-20T15:34:18;32.00;25.10
78896;HTU21D;68284;59.124;37.910;2023-08-20T15:36:46;32.24;24.87
78896;HTU21D;68284;59.124;37.910;2023-08-20T15:39:12;32.42;24.56